Articles

Pooleys Chart - EITM

Share

Trim Flying Club Pooleys Chart for Trim Airfield

Share

Trim Flying Club goes to the Aran Islands

Learn to fly at Trim Flying Club

Rainfall Radar Now

Atlantic Charts Pressure - Today

Atlantic Charts Rainfall - Today

 
 

Atlantic Charts Pressure - Tomorrow

Sunrise Sunset

Click for Dublin, Ireland Forecast

Aviation WX Dublin EIDW

[source: ADDS]
METAR
EIDW 030630Z 06005KT 050V110 9999 FEW005 BKN040 13/13 Q1022 NOSIG =
TAF
TAF EIDW 030500Z 0306/0406 10005KT 9999 FEW017 SCT040 TEMPO 0306/0308 3000 BR BECMG 0320/0322 VRB03KT TEMPO 0400/0406 2000 BR BKN010 =